createdAt,value
2023-02-03T00:04:42.618Z,2.94
2023-02-03T00:09:45.982Z,3.07
2023-02-03T00:14:49.590Z,2.99
2023-02-03T00:19:52.960Z,3.39
2023-02-03T00:24:57.322Z,2.08
2023-02-03T00:30:00.903Z,3.23
2023-02-03T00:35:13.977Z,3.11
2023-02-03T00:40:17.590Z,3.34
2023-02-03T00:45:21.295Z,3.31
2023-02-03T00:50:25.151Z,2.69
2023-02-03T00:55:28.948Z,2.83
2023-02-03T01:00:32.674Z,1.34
2023-02-03T01:05:37.044Z,2.64
2023-02-03T01:10:40.782Z,2.68
2023-02-03T01:15:48.991Z,3.01
2023-02-03T01:20:52.694Z,2.98
2023-02-03T01:25:56.124Z,2.57
2023-02-03T01:31:16.529Z,3.32
2023-02-03T01:36:19.918Z,3.41
2023-02-03T01:41:26.730Z,3.24
2023-02-03T01:46:45.935Z,3.00
2023-02-03T01:51:50.379Z,2.00
2023-02-03T01:57:01.992Z,1.12
2023-02-03T02:02:09.093Z,1.72
2023-02-03T02:07:13.587Z,0.63
2023-02-03T02:12:28.326Z,-0.18
2023-02-03T02:17:47.700Z,1.74
2023-02-03T02:23:29.689Z,0.90
2023-02-03T02:29:04.180Z,1.01
2023-02-03T02:34:32.648Z,1.20
2023-02-03T02:39:48.141Z,0.67
2023-02-03T02:45:06.177Z,1.58
2023-02-03T02:50:15.394Z,0.32
2023-02-03T02:55:28.646Z,1.00
2023-02-03T03:00:35.087Z,0.69
2023-02-03T03:05:39.847Z,1.30
2023-02-03T03:10:44.615Z,2.05
2023-02-03T03:15:51.355Z,2.26
2023-02-03T03:20:59.139Z,0.80
2023-02-03T03:26:14.233Z,0.87
2023-02-03T03:31:20.157Z,0.76
2023-02-03T03:36:30.237Z,1.33
2023-02-03T03:41:47.998Z,1.66
2023-02-03T03:47:04.670Z,0.95
2023-02-03T03:52:11.731Z,-0.50
2023-02-03T03:57:27.841Z,0.85
2023-02-03T04:02:33.689Z,0.97
2023-02-03T04:07:49.206Z,0.42
2023-02-03T04:12:52.600Z,0.21
2023-02-03T04:17:57.857Z,0.52
2023-02-03T04:23:01.505Z,-0.62
2023-02-03T04:28:15.106Z,0.58
2023-02-03T04:33:18.685Z,-1.25
2023-02-03T04:38:32.350Z,-1.00
2023-02-03T04:43:35.708Z,0.20
2023-02-03T04:48:40.234Z,-1.37
2023-02-03T04:53:53.738Z,0.46
2023-02-03T04:58:57.195Z,0.03
2023-02-03T05:04:00.598Z,-1.01
2023-02-03T05:09:04.549Z,0.37
2023-02-03T05:14:08.355Z,-0.78
2023-02-03T05:19:12.289Z,-1.17
2023-02-03T05:24:15.869Z,-0.31
2023-02-03T05:29:19.742Z,-0.84
2023-02-03T05:34:23.155Z,-0.43
2023-02-03T05:39:31.801Z,-0.50
2023-02-03T05:44:45.433Z,-1.13
2023-02-03T05:49:58.798Z,-1.52
2023-02-03T05:55:02.134Z,-0.76
2023-02-03T06:00:08.146Z,-1.11
2023-02-03T06:05:22.729Z,-0.68
2023-02-03T06:10:26.560Z,-2.44
2023-02-03T06:15:31.009Z,-1.26
2023-02-03T06:20:35.536Z,-2.27
2023-02-03T06:25:45.710Z,-1.12
2023-02-03T06:30:57.321Z,-0.64
2023-02-03T06:36:04.981Z,-1.41
2023-02-03T06:41:08.397Z,-1.26
2023-02-03T06:46:13.337Z,-0.86
2023-02-03T06:51:27.060Z,-0.75
2023-02-03T06:56:30.998Z,-2.23
2023-02-03T07:01:34.621Z,-1.30
2023-02-03T07:06:38.317Z,-1.34
2023-02-03T07:11:41.811Z,-1.59
2023-02-03T07:16:45.820Z,-1.30
2023-02-03T07:21:49.448Z,-1.63
2023-02-03T07:26:54.141Z,-0.58
2023-02-03T07:31:58.031Z,-1.89
2023-02-03T07:37:01.912Z,-0.58
2023-02-03T07:42:05.556Z,-0.04
2023-02-03T07:47:12.661Z,0.03
2023-02-03T07:52:22.345Z,0.23
2023-02-03T07:57:25.759Z,0.42
2023-02-03T08:02:29.275Z,0.26
2023-02-03T08:07:32.926Z,0.23
2023-02-03T08:12:36.662Z,0.77
2023-02-03T08:17:45.283Z,1.19
2023-02-03T08:22:58.965Z,0.73
2023-02-03T08:28:02.723Z,1.76
2023-02-03T08:33:16.280Z,1.26
2023-02-03T08:38:20.392Z,2.45
2023-02-03T08:43:23.901Z,0.89
2023-02-03T08:48:27.312Z,1.80
2023-02-03T08:53:30.718Z,2.44
2023-02-03T08:58:34.282Z,2.12
2023-02-03T09:03:38.411Z,3.41
2023-02-03T09:08:42.403Z,3.62
2023-02-03T09:13:49.793Z,2.82
2023-02-03T09:18:53.286Z,4.29
2023-02-03T09:23:56.997Z,5.00
2023-02-03T09:29:01.094Z,3.60
2023-02-03T09:34:07.767Z,5.70
2023-02-03T09:39:11.252Z,5.49
2023-02-03T09:44:27.410Z,6.00
2023-02-03T09:49:46.095Z,6.21
2023-02-03T09:55:01.721Z,5.76
2023-02-03T10:00:17.924Z,6.51
2023-02-03T10:05:41.989Z,6.43
2023-02-03T10:11:13.408Z,6.78
2023-02-03T10:16:43.191Z,6.91
2023-02-03T10:21:57.920Z,7.19
2023-02-03T10:27:01.422Z,7.29
2023-02-03T10:32:13.468Z,6.43
2023-02-03T10:37:46.010Z,7.73
2023-02-03T10:43:09.219Z,7.21
2023-02-03T10:48:24.247Z,7.97
2023-02-03T10:53:34.919Z,8.08
2023-02-03T10:58:40.060Z,8.57
2023-02-03T11:03:59.985Z,8.17
2023-02-03T11:09:22.849Z,8.10
2023-02-03T11:14:26.330Z,8.20
2023-02-03T11:19:30.892Z,7.93
2023-02-03T11:24:46.214Z,8.02
2023-02-03T11:30:15.759Z,8.79
2023-02-03T11:35:24.046Z,7.26
2023-02-03T11:40:35.351Z,9.17
2023-02-03T11:46:09.387Z,9.11
2023-02-03T11:51:46.850Z,8.94
2023-02-03T11:57:17.109Z,9.28
2023-02-03T12:03:04.846Z,9.70
2023-02-03T12:08:36.412Z,9.58
2023-02-03T12:13:46.153Z,10.06
2023-02-03T12:19:11.124Z,10.20
2023-02-03T12:24:54.096Z,10.16
2023-02-03T12:30:06.500Z,9.64
2023-02-03T12:35:26.155Z,9.50
2023-02-03T12:40:44.079Z,9.69
2023-02-03T12:46:05.580Z,9.75
2023-02-03T12:51:16.062Z,9.76
2023-02-03T12:56:29.792Z,10.12
2023-02-03T13:02:04.302Z,9.36
2023-02-03T13:07:10.423Z,8.26
2023-02-03T13:12:23.187Z,9.90
2023-02-03T13:17:29.028Z,9.98
2023-02-03T13:22:33.277Z,8.46
2023-02-03T13:28:00.924Z,10.02
2023-02-03T13:33:29.061Z,10.30
2023-02-03T13:38:57.821Z,10.29
2023-02-03T13:44:02.710Z,9.73
2023-02-03T13:49:09.826Z,10.34
2023-02-03T13:54:28.872Z,9.93
2023-02-03T13:59:38.548Z,10.20
2023-02-03T14:04:48.121Z,10.16
2023-02-03T14:10:10.669Z,10.18
2023-02-03T14:15:27.708Z,9.99
2023-02-03T14:20:49.803Z,9.97
2023-02-03T14:25:57.692Z,9.73
2023-02-03T14:31:13.365Z,9.31
2023-02-03T14:36:29.189Z,9.62
2023-02-03T14:42:05.700Z,9.64
2023-02-03T14:47:31.971Z,9.15
2023-02-03T14:53:02.360Z,9.28
2023-02-03T14:58:17.144Z,8.99
2023-02-03T15:03:23.634Z,9.06
2023-02-03T15:08:44.232Z,8.68
2023-02-03T15:13:47.984Z,7.96
2023-02-03T15:18:57.330Z,8.26
2023-02-03T15:24:01.087Z,8.36
2023-02-03T15:29:05.872Z,7.53
2023-02-03T15:34:16.655Z,8.29
2023-02-03T15:39:47.020Z,7.01
2023-02-03T15:45:30.100Z,8.14
2023-02-03T15:50:43.032Z,7.91
2023-02-03T15:55:50.683Z,7.72
2023-02-03T16:01:10.903Z,7.29
2023-02-03T16:06:41.426Z,7.68
2023-02-03T16:12:26.265Z,7.67
2023-02-03T16:17:38.042Z,7.67
2023-02-03T16:23:00.740Z,7.61
2023-02-03T16:28:32.087Z,7.55
2023-02-03T16:33:55.833Z,7.54
2023-02-03T16:39:22.079Z,7.56
2023-02-03T16:44:49.166Z,7.14
2023-02-03T16:50:10.980Z,7.38
2023-02-03T16:55:14.480Z,7.21
2023-02-03T17:00:19.502Z,6.18
2023-02-03T17:05:22.838Z,6.94
2023-02-03T17:10:26.466Z,6.63
2023-02-03T17:15:30.362Z,7.18
2023-02-03T17:20:36.094Z,6.99
2023-02-03T17:25:40.356Z,6.62
2023-02-03T17:30:43.942Z,7.08
2023-02-03T17:35:47.381Z,6.87
2023-02-03T17:56:58.448Z,6.68
2023-02-03T18:02:02.367Z,6.89
2023-02-03T18:07:06.268Z,6.28
2023-02-03T18:12:09.606Z,6.60
2023-02-03T18:17:12.958Z,6.90
2023-02-03T18:22:16.729Z,6.90
2023-02-03T18:27:21.049Z,6.82
2023-02-03T18:32:24.404Z,7.08
2023-02-03T18:37:28.097Z,6.96
2023-02-03T18:42:31.486Z,6.52
2023-02-03T18:47:34.994Z,6.44
2023-02-03T18:52:38.872Z,5.84
2023-02-03T18:57:42.219Z,6.53
2023-02-03T19:02:48.987Z,5.66
2023-02-03T19:07:52.454Z,5.77
2023-02-03T19:13:05.810Z,6.08
2023-02-03T19:18:09.256Z,5.60
2023-02-03T19:23:13.382Z,5.79
2023-02-03T19:28:20.283Z,4.59
2023-02-03T19:33:31.904Z,5.08
2023-02-03T19:38:36.087Z,5.25
2023-02-03T19:43:40.825Z,4.84
2023-02-03T19:48:44.314Z,5.12
2023-02-03T19:53:47.694Z,5.30
2023-02-03T19:58:58.030Z,4.10
2023-02-03T20:04:01.601Z,4.16
2023-02-03T20:09:06.958Z,4.00
2023-02-03T20:14:10.511Z,3.76
2023-02-03T20:19:14.228Z,2.85
2023-02-03T20:24:18.121Z,3.56
2023-02-03T20:29:21.713Z,3.43
2023-02-03T20:34:28.216Z,3.98
2023-02-03T20:39:31.824Z,4.00
2023-02-03T20:44:35.269Z,3.66
2023-02-03T20:49:50.266Z,3.44
2023-02-03T20:54:53.968Z,4.03
2023-02-03T20:59:57.700Z,2.93
2023-02-03T21:05:03.453Z,3.05
2023-02-03T21:10:19.033Z,3.05
2023-02-03T21:15:34.005Z,3.06
2023-02-03T21:20:37.486Z,1.37
2023-02-03T21:25:40.932Z,2.90
2023-02-03T21:30:44.529Z,2.63
2023-02-03T21:35:47.961Z,3.00
2023-02-03T21:40:51.402Z,3.00
2023-02-03T21:45:54.966Z,2.45
2023-02-03T21:51:13.132Z,1.98
2023-02-03T21:56:20.316Z,1.70
2023-02-03T22:01:26.400Z,1.92
2023-02-03T22:06:42.737Z,2.10
2023-02-03T22:11:47.459Z,1.53
2023-02-03T22:16:51.445Z,1.23
2023-02-03T22:21:55.241Z,0.79
2023-02-03T22:27:01.072Z,0.89
2023-02-03T22:32:04.880Z,0.06
2023-02-03T22:37:08.455Z,0.64
2023-02-03T22:42:12.007Z,0.94
2023-02-03T22:47:15.633Z,0.81
2023-02-03T22:52:19.505Z,0.90
2023-02-03T22:57:34.190Z,1.14
2023-02-03T23:02:48.710Z,0.87
2023-02-03T23:08:02.818Z,0.67
2023-02-03T23:13:06.560Z,-0.14
2023-02-03T23:18:10.144Z,0.65
2023-02-03T23:23:15.396Z,0.10
2023-02-03T23:28:19.051Z,0.82
2023-02-03T23:33:26.114Z,-0.11
2023-02-03T23:38:29.571Z,0.93
2023-02-03T23:43:33.447Z,0.62
2023-02-03T23:48:37.174Z,-1.64
2023-02-03T23:53:40.883Z,-1.54
2023-02-03T23:58:44.445Z,-0.76
